sensor_id;sensor_type;location;lat;lon;timestamp;P1;durP1;ratioP1;P2;durP2;ratioP2
9260;SDS011;4667;42.726;23.252;2022-07-23T00:00:10;7.65;;;5.70;;
9260;SDS011;4667;42.726;23.252;2022-07-23T00:02:38;7.78;;;4.45;;
9260;SDS011;4667;42.726;23.252;2022-07-23T00:05:04;8.75;;;5.13;;
9260;SDS011;4667;42.726;23.252;2022-07-23T00:07:31;8.05;;;4.82;;
9260;SDS011;4667;42.726;23.252;2022-07-23T00:09:57;8.70;;;4.88;;
9260;SDS011;4667;42.726;23.252;2022-07-23T00:12:24;7.40;;;4.95;;
9260;SDS011;4667;42.726;23.252;2022-07-23T00:14:51;7.50;;;5.93;;
9260;SDS011;4667;42.726;23.252;2022-07-23T00:17:17;8.60;;;5.07;;
9260;SDS011;4667;42.726;23.252;2022-07-23T00:19:45;8.20;;;5.68;;
9260;SDS011;4667;42.726;23.252;2022-07-23T00:22:12;11.60;;;5.43;;
9260;SDS011;4667;42.726;23.252;2022-07-23T00:24:38;6.13;;;4.90;;
9260;SDS011;4667;42.726;23.252;2022-07-23T00:27:05;8.93;;;5.38;;
9260;SDS011;4667;42.726;23.252;2022-07-23T00:29:31;11.23;;;4.60;;
9260;SDS011;4667;42.726;23.252;2022-07-23T00:31:58;7.78;;;5.63;;
9260;SDS011;4667;42.726;23.252;2022-07-23T00:34:24;8.27;;;5.10;;
9260;SDS011;4667;42.726;23.252;2022-07-23T00:36:55;8.15;;;4.88;;
9260;SDS011;4667;42.726;23.252;2022-07-23T00:39:21;6.40;;;4.40;;
9260;SDS011;4667;42.726;23.252;2022-07-23T00:41:48;6.60;;;4.78;;
9260;SDS011;4667;42.726;23.252;2022-07-23T00:44:15;5.60;;;4.70;;
9260;SDS011;4667;42.726;23.252;2022-07-23T00:46:45;9.23;;;5.33;;
9260;SDS011;4667;42.726;23.252;2022-07-23T00:49:11;9.10;;;5.15;;
9260;SDS011;4667;42.726;23.252;2022-07-23T00:51:38;6.43;;;5.07;;
9260;SDS011;4667;42.726;23.252;2022-07-23T00:54:06;7.85;;;5.05;;
9260;SDS011;4667;42.726;23.252;2022-07-23T00:56:32;7.40;;;5.00;;
9260;SDS011;4667;42.726;23.252;2022-07-23T00:58:59;7.53;;;5.20;;
9260;SDS011;4667;42.726;23.252;2022-07-23T01:01:26;7.77;;;5.17;;
9260;SDS011;4667;42.726;23.252;2022-07-23T01:03:52;7.03;;;4.85;;
9260;SDS011;4667;42.726;23.252;2022-07-23T01:06:19;7.80;;;5.45;;
9260;SDS011;4667;42.726;23.252;2022-07-23T01:08:45;7.82;;;5.28;;
9260;SDS011;4667;42.726;23.252;2022-07-23T01:11:13;5.95;;;5.13;;
9260;SDS011;4667;42.726;23.252;2022-07-23T01:13:40;5.47;;;4.40;;
9260;SDS011;4667;42.726;23.252;2022-07-23T01:16:07;7.97;;;5.32;;
9260;SDS011;4667;42.726;23.252;2022-07-23T01:18:33;7.03;;;4.60;;
9260;SDS011;4667;42.726;23.252;2022-07-23T01:21:00;9.23;;;5.60;;
9260;SDS011;4667;42.726;23.252;2022-07-23T01:23:28;6.87;;;5.30;;
9260;SDS011;4667;42.726;23.252;2022-07-23T01:25:54;8.60;;;5.27;;
9260;SDS011;4667;42.726;23.252;2022-07-23T01:28:21;6.90;;;4.63;;
9260;SDS011;4667;42.726;23.252;2022-07-23T01:30:47;7.67;;;4.87;;
9260;SDS011;4667;42.726;23.252;2022-07-23T01:33:14;7.90;;;5.40;;
9260;SDS011;4667;42.726;23.252;2022-07-23T01:35:40;6.63;;;4.80;;
9260;SDS011;4667;42.726;23.252;2022-07-23T01:38:07;7.97;;;5.33;;
9260;SDS011;4667;42.726;23.252;2022-07-23T01:40:35;8.77;;;5.37;;
9260;SDS011;4667;42.726;23.252;2022-07-23T01:43:01;5.87;;;4.80;;
9260;SDS011;4667;42.726;23.252;2022-07-23T01:45:28;8.93;;;5.37;;
9260;SDS011;4667;42.726;23.252;2022-07-23T01:47:54;5.77;;;5.07;;
9260;SDS011;4667;42.726;23.252;2022-07-23T01:50:21;9.53;;;5.53;;
9260;SDS011;4667;42.726;23.252;2022-07-23T01:52:47;7.07;;;5.17;;
9260;SDS011;4667;42.726;23.252;2022-07-23T01:55:14;6.90;;;5.00;;
9260;SDS011;4667;42.726;23.252;2022-07-23T01:57:42;8.23;;;4.83;;
9260;SDS011;4667;42.726;23.252;2022-07-23T02:00:09;8.70;;;6.03;;
9260;SDS011;4667;42.726;23.252;2022-07-23T02:02:35;5.73;;;4.70;;
9260;SDS011;4667;42.726;23.252;2022-07-23T02:05:02;7.40;;;4.90;;
9260;SDS011;4667;42.726;23.252;2022-07-23T02:07:28;8.97;;;5.07;;
9260;SDS011;4667;42.726;23.252;2022-07-23T02:09:55;7.17;;;5.37;;
9260;SDS011;4667;42.726;23.252;2022-07-23T02:12:21;6.43;;;4.77;;
9260;SDS011;4667;42.726;23.252;2022-07-23T02:14:49;8.83;;;5.70;;
9260;SDS011;4667;42.726;23.252;2022-07-23T02:17:16;8.10;;;5.60;;
9260;SDS011;4667;42.726;23.252;2022-07-23T02:19:42;9.77;;;6.40;;
9260;SDS011;4667;42.726;23.252;2022-07-23T02:22:09;10.43;;;5.63;;
9260;SDS011;4667;42.726;23.252;2022-07-23T02:24:35;8.53;;;5.87;;
9260;SDS011;4667;42.726;23.252;2022-07-23T02:27:02;8.03;;;5.97;;
9260;SDS011;4667;42.726;23.252;2022-07-23T02:29:28;9.73;;;5.90;;
9260;SDS011;4667;42.726;23.252;2022-07-23T02:31:56;8.47;;;6.00;;
9260;SDS011;4667;42.726;23.252;2022-07-23T02:34:22;9.73;;;6.17;;
9260;SDS011;4667;42.726;23.252;2022-07-23T02:36:49;8.33;;;5.90;;
9260;SDS011;4667;42.726;23.252;2022-07-23T02:39:15;7.67;;;6.10;;
9260;SDS011;4667;42.726;23.252;2022-07-23T02:41:42;11.03;;;6.03;;
9260;SDS011;4667;42.726;23.252;2022-07-23T02:44:08;7.77;;;5.73;;
9260;SDS011;4667;42.726;23.252;2022-07-23T02:46:35;8.70;;;6.30;;
9260;SDS011;4667;42.726;23.252;2022-07-23T02:49:03;10.20;;;6.13;;
9260;SDS011;4667;42.726;23.252;2022-07-23T02:51:29;8.80;;;5.87;;
9260;SDS011;4667;42.726;23.252;2022-07-23T02:53:56;10.50;;;5.33;;
9260;SDS011;4667;42.726;23.252;2022-07-23T02:56:22;8.17;;;5.60;;
9260;SDS011;4667;42.726;23.252;2022-07-23T02:58:49;7.00;;;5.43;;
9260;SDS011;4667;42.726;23.252;2022-07-23T03:01:15;7.77;;;5.53;;
9260;SDS011;4667;42.726;23.252;2022-07-23T03:03:42;7.20;;;4.87;;
9260;SDS011;4667;42.726;23.252;2022-07-23T03:06:10;7.50;;;5.47;;
9260;SDS011;4667;42.726;23.252;2022-07-23T03:08:37;6.30;;;5.63;;
9260;SDS011;4667;42.726;23.252;2022-07-23T03:11:03;8.20;;;5.27;;
9260;SDS011;4667;42.726;23.252;2022-07-23T03:13:32;8.67;;;5.33;;
9260;SDS011;4667;42.726;23.252;2022-07-23T03:15:59;7.03;;;5.67;;
9260;SDS011;4667;42.726;23.252;2022-07-23T03:18:25;10.00;;;6.10;;
9260;SDS011;4667;42.726;23.252;2022-07-23T03:20:52;7.40;;;6.47;;
9260;SDS011;4667;42.726;23.252;2022-07-23T03:23:20;11.60;;;9.10;;
9260;SDS011;4667;42.726;23.252;2022-07-23T03:25:46;12.70;;;8.90;;
9260;SDS011;4667;42.726;23.252;2022-07-23T03:28:13;11.40;;;8.70;;
9260;SDS011;4667;42.726;23.252;2022-07-23T03:30:40;10.87;;;7.40;;
9260;SDS011;4667;42.726;23.252;2022-07-23T03:33:07;9.77;;;7.80;;
9260;SDS011;4667;42.726;23.252;2022-07-23T03:35:33;12.63;;;7.60;;
9260;SDS011;4667;42.726;23.252;2022-07-23T03:38:00;10.07;;;7.53;;
9260;SDS011;4667;42.726;23.252;2022-07-23T03:40:28;7.60;;;6.50;;
9260;SDS011;4667;42.726;23.252;2022-07-23T03:42:54;11.07;;;6.70;;
9260;SDS011;4667;42.726;23.252;2022-07-23T03:45:21;11.37;;;6.40;;
9260;SDS011;4667;42.726;23.252;2022-07-23T03:47:47;10.40;;;6.20;;
9260;SDS011;4667;42.726;23.252;2022-07-23T03:50:14;7.30;;;5.37;;
9260;SDS011;4667;42.726;23.252;2022-07-23T03:52:40;5.97;;;5.10;;
9260;SDS011;4667;42.726;23.252;2022-07-23T03:55:07;8.23;;;5.80;;
9260;SDS011;4667;42.726;23.252;2022-07-23T03:57:35;9.10;;;5.73;;
9260;SDS011;4667;42.726;23.252;2022-07-23T04:00:02;7.63;;;5.73;;
9260;SDS011;4667;42.726;23.252;2022-07-23T04:02:28;6.57;;;5.57;;
9260;SDS011;4667;42.726;23.252;2022-07-23T04:04:55;8.27;;;5.73;;
9260;SDS011;4667;42.726;23.252;2022-07-23T04:07:21;7.37;;;5.60;;
9260;SDS011;4667;42.726;23.252;2022-07-23T04:09:48;9.27;;;5.33;;
9260;SDS011;4667;42.726;23.252;2022-07-23T04:12:14;10.17;;;5.87;;
9260;SDS011;4667;42.726;23.252;2022-07-23T04:14:42;7.97;;;5.57;;
9260;SDS011;4667;42.726;23.252;2022-07-23T04:17:09;8.33;;;6.10;;
9260;SDS011;4667;42.726;23.252;2022-07-23T04:19:35;8.13;;;5.63;;
9260;SDS011;4667;42.726;23.252;2022-07-23T04:22:05;7.57;;;6.00;;
9260;SDS011;4667;42.726;23.252;2022-07-23T04:24:31;7.53;;;5.20;;
9260;SDS011;4667;42.726;23.252;2022-07-23T04:26:58;9.80;;;5.33;;
9260;SDS011;4667;42.726;23.252;2022-07-23T04:29:24;6.63;;;5.60;;
9260;SDS011;4667;42.726;23.252;2022-07-23T04:31:52;7.50;;;5.50;;
9260;SDS011;4667;42.726;23.252;2022-07-23T04:34:19;13.60;;;5.73;;
9260;SDS011;4667;42.726;23.252;2022-07-23T04:36:45;9.67;;;5.90;;
9260;SDS011;4667;42.726;23.252;2022-07-23T04:39:12;6.80;;;4.90;;
9260;SDS011;4667;42.726;23.252;2022-07-23T04:41:39;7.70;;;5.40;;
9260;SDS011;4667;42.726;23.252;2022-07-23T04:44:05;7.97;;;5.63;;
9260;SDS011;4667;42.726;23.252;2022-07-23T04:46:32;8.57;;;5.70;;
9260;SDS011;4667;42.726;23.252;2022-07-23T04:48:59;7.27;;;5.50;;
9260;SDS011;4667;42.726;23.252;2022-07-23T04:51:26;7.20;;;5.68;;
9260;SDS011;4667;42.726;23.252;2022-07-23T04:53:54;8.83;;;5.40;;
9260;SDS011;4667;42.726;23.252;2022-07-23T04:56:20;7.17;;;5.63;;
9260;SDS011;4667;42.726;23.252;2022-07-23T04:58:47;8.13;;;5.50;;
9260;SDS011;4667;42.726;23.252;2022-07-23T05:01:13;6.90;;;5.40;;
9260;SDS011;4667;42.726;23.252;2022-07-23T05:03:41;8.33;;;5.70;;
9260;SDS011;4667;42.726;23.252;2022-07-23T05:06:09;9.67;;;6.13;;
9260;SDS011;4667;42.726;23.252;2022-07-23T05:08:36;8.60;;;6.03;;
9260;SDS011;4667;42.726;23.252;2022-07-23T05:11:02;6.80;;;5.40;;
9260;SDS011;4667;42.726;23.252;2022-07-23T05:13:29;8.10;;;5.47;;
9260;SDS011;4667;42.726;23.252;2022-07-23T05:15:55;7.97;;;6.30;;
9260;SDS011;4667;42.726;23.252;2022-07-23T05:18:22;9.57;;;5.97;;
9260;SDS011;4667;42.726;23.252;2022-07-23T05:20:48;9.55;;;5.75;;
9260;SDS011;4667;42.726;23.252;2022-07-23T05:23:16;6.53;;;5.78;;
9260;SDS011;4667;42.726;23.252;2022-07-23T05:25:43;8.73;;;5.90;;
9260;SDS011;4667;42.726;23.252;2022-07-23T05:28:09;10.00;;;6.18;;
9260;SDS011;4667;42.726;23.252;2022-07-23T05:30:36;11.98;;;6.40;;
9260;SDS011;4667;42.726;23.252;2022-07-23T05:33:02;11.80;;;6.75;;
9260;SDS011;4667;42.726;23.252;2022-07-23T05:35:41;8.27;;;6.28;;
9260;SDS011;4667;42.726;23.252;2022-07-23T05:38:08;10.77;;;6.45;;
9260;SDS011;4667;42.726;23.252;2022-07-23T05:40:36;7.75;;;5.60;;
9260;SDS011;4667;42.726;23.252;2022-07-23T05:43:05;8.63;;;5.72;;
9260;SDS011;4667;42.726;23.252;2022-07-23T05:45:32;9.10;;;6.00;;
9260;SDS011;4667;42.726;23.252;2022-07-23T05:47:58;8.27;;;5.63;;
9260;SDS011;4667;42.726;23.252;2022-07-23T05:50:28;7.50;;;6.43;;
9260;SDS011;4667;42.726;23.252;2022-07-23T05:52:54;7.45;;;6.40;;
9260;SDS011;4667;42.726;23.252;2022-07-23T05:55:21;7.45;;;5.68;;
9260;SDS011;4667;42.726;23.252;2022-07-23T05:57:48;9.20;;;6.10;;
9260;SDS011;4667;42.726;23.252;2022-07-23T06:00:15;9.43;;;7.15;;
9260;SDS011;4667;42.726;23.252;2022-07-23T06:02:41;9.07;;;7.03;;
9260;SDS011;4667;42.726;23.252;2022-07-23T06:05:08;9.05;;;6.78;;
9260;SDS011;4667;42.726;23.252;2022-07-23T06:07:35;9.18;;;6.25;;
9260;SDS011;4667;42.726;23.252;2022-07-23T06:10:05;10.38;;;6.38;;
9260;SDS011;4667;42.726;23.252;2022-07-23T06:12:31;9.07;;;7.43;;
9260;SDS011;4667;42.726;23.252;2022-07-23T06:14:59;12.45;;;7.82;;
9260;SDS011;4667;42.726;23.252;2022-07-23T06:17:26;10.90;;;7.80;;
9260;SDS011;4667;42.726;23.252;2022-07-23T06:19:52;12.70;;;8.50;;
9260;SDS011;4667;42.726;23.252;2022-07-23T06:22:19;10.30;;;7.97;;
9260;SDS011;4667;42.726;23.252;2022-07-23T06:24:46;9.90;;;6.80;;
9260;SDS011;4667;42.726;23.252;2022-07-23T06:27:12;9.95;;;7.07;;
9260;SDS011;4667;42.726;23.252;2022-07-23T06:29:39;10.30;;;7.70;;
9260;SDS011;4667;42.726;23.252;2022-07-23T06:32:07;10.15;;;7.18;;
9260;SDS011;4667;42.726;23.252;2022-07-23T06:34:34;10.02;;;7.65;;
9260;SDS011;4667;42.726;23.252;2022-07-23T06:37:00;10.23;;;7.78;;
9260;SDS011;4667;42.726;23.252;2022-07-23T06:39:27;11.75;;;6.95;;
9260;SDS011;4667;42.726;23.252;2022-07-23T06:41:54;12.25;;;7.40;;
9260;SDS011;4667;42.726;23.252;2022-07-23T06:44:20;11.15;;;7.10;;
9260;SDS011;4667;42.726;23.252;2022-07-23T06:46:47;9.73;;;8.05;;
9260;SDS011;4667;42.726;23.252;2022-07-23T06:49:15;9.73;;;7.18;;
9260;SDS011;4667;42.726;23.252;2022-07-23T06:51:42;13.13;;;9.48;;
9260;SDS011;4667;42.726;23.252;2022-07-23T06:54:09;12.95;;;7.78;;
9260;SDS011;4667;42.726;23.252;2022-07-23T06:56:35;9.80;;;6.85;;
9260;SDS011;4667;42.726;23.252;2022-07-23T06:59:02;20.38;;;9.77;;
9260;SDS011;4667;42.726;23.252;2022-07-23T07:01:29;15.70;;;8.25;;
9260;SDS011;4667;42.726;23.252;2022-07-23T07:03:55;7.85;;;6.22;;
9260;SDS011;4667;42.726;23.252;2022-07-23T07:06:23;20.27;;;7.95;;
9260;SDS011;4667;42.726;23.252;2022-07-23T07:08:50;13.57;;;6.78;;
9260;SDS011;4667;42.726;23.252;2022-07-23T07:11:16;11.98;;;7.10;;
9260;SDS011;4667;42.726;23.252;2022-07-23T07:13:48;13.07;;;7.70;;
9260;SDS011;4667;42.726;23.252;2022-07-23T07:16:15;8.95;;;6.75;;
9260;SDS011;4667;42.726;23.252;2022-07-23T07:18:42;12.30;;;6.20;;
9260;SDS011;4667;42.726;23.252;2022-07-23T07:21:08;9.18;;;6.63;;
9260;SDS011;4667;42.726;23.252;2022-07-23T07:23:36;9.80;;;6.55;;
9260;SDS011;4667;42.726;23.252;2022-07-23T07:26:03;12.13;;;8.63;;
9260;SDS011;4667;42.726;23.252;2022-07-23T07:28:30;10.68;;;6.72;;
9260;SDS011;4667;42.726;23.252;2022-07-23T07:30:56;14.63;;;9.60;;
9260;SDS011;4667;42.726;23.252;2022-07-23T07:33:23;8.82;;;5.75;;
9260;SDS011;4667;42.726;23.252;2022-07-23T07:35:49;12.38;;;6.70;;
9260;SDS011;4667;42.726;23.252;2022-07-23T07:38:16;10.00;;;6.18;;
9260;SDS011;4667;42.726;23.252;2022-07-23T07:40:44;12.90;;;7.60;;
9260;SDS011;4667;42.726;23.252;2022-07-23T07:43:10;8.82;;;6.68;;
9260;SDS011;4667;42.726;23.252;2022-07-23T07:45:37;9.98;;;6.18;;
9260;SDS011;4667;42.726;23.252;2022-07-23T07:48:04;10.90;;;6.28;;
9260;SDS011;4667;42.726;23.252;2022-07-23T07:50:30;8.90;;;6.80;;
9260;SDS011;4667;42.726;23.252;2022-07-23T07:52:57;8.20;;;6.15;;
9260;SDS011;4667;42.726;23.252;2022-07-23T07:55:23;9.50;;;6.38;;
9260;SDS011;4667;42.726;23.252;2022-07-23T07:57:51;9.35;;;5.70;;
9260;SDS011;4667;42.726;23.252;2022-07-23T08:00:18;9.18;;;5.93;;
9260;SDS011;4667;42.726;23.252;2022-07-23T08:02:45;9.32;;;6.43;;
9260;SDS011;4667;42.726;23.252;2022-07-23T08:05:11;9.25;;;5.90;;
9260;SDS011;4667;42.726;23.252;2022-07-23T08:07:38;12.10;;;6.57;;
9260;SDS011;4667;42.726;23.252;2022-07-23T08:10:05;10.82;;;5.88;;
9260;SDS011;4667;42.726;23.252;2022-07-23T08:12:39;9.98;;;6.70;;
9260;SDS011;4667;42.726;23.252;2022-07-23T08:15:08;8.70;;;6.18;;
9260;SDS011;4667;42.726;23.252;2022-07-23T08:17:35;12.13;;;6.78;;
9260;SDS011;4667;42.726;23.252;2022-07-23T08:20:01;8.95;;;5.50;;
9260;SDS011;4667;42.726;23.252;2022-07-23T08:22:40;7.80;;;5.50;;
9260;SDS011;4667;42.726;23.252;2022-07-23T08:25:08;11.40;;;6.25;;
9260;SDS011;4667;42.726;23.252;2022-07-23T08:27:35;12.40;;;5.93;;
9260;SDS011;4667;42.726;23.252;2022-07-23T08:30:02;10.77;;;7.07;;
9260;SDS011;4667;42.726;23.252;2022-07-23T08:32:30;12.10;;;6.32;;
9260;SDS011;4667;42.726;23.252;2022-07-23T08:35:06;9.90;;;6.70;;
9260;SDS011;4667;42.726;23.252;2022-07-23T08:37:33;9.82;;;6.35;;
9260;SDS011;4667;42.726;23.252;2022-07-23T08:39:59;11.18;;;6.22;;
9260;SDS011;4667;42.726;23.252;2022-07-23T08:42:26;10.07;;;6.15;;
9260;SDS011;4667;42.726;23.252;2022-07-23T08:44:52;12.48;;;6.88;;
9260;SDS011;4667;42.726;23.252;2022-07-23T08:47:19;10.30;;;5.68;;
9260;SDS011;4667;42.726;23.252;2022-07-23T08:49:47;9.77;;;6.55;;
9260;SDS011;4667;42.726;23.252;2022-07-23T08:52:16;8.60;;;5.18;;
9260;SDS011;4667;42.726;23.252;2022-07-23T08:54:43;11.77;;;6.93;;
9260;SDS011;4667;42.726;23.252;2022-07-23T08:57:10;9.35;;;6.13;;
9260;SDS011;4667;42.726;23.252;2022-07-23T08:59:36;12.20;;;5.68;;
9260;SDS011;4667;42.726;23.252;2022-07-23T09:02:03;8.70;;;5.18;;
9260;SDS011;4667;42.726;23.252;2022-07-23T09:04:30;8.88;;;6.07;;
9260;SDS011;4667;42.726;23.252;2022-07-23T09:06:58;14.27;;;5.65;;
9260;SDS011;4667;42.726;23.252;2022-07-23T09:09:25;8.75;;;5.47;;
9260;SDS011;4667;42.726;23.252;2022-07-23T09:12:01;6.70;;;6.00;;
9260;SDS011;4667;42.726;23.252;2022-07-23T09:14:35;8.50;;;5.05;;
9260;SDS011;4667;42.726;23.252;2022-07-23T09:17:08;7.95;;;6.10;;
9260;SDS011;4667;42.726;23.252;2022-07-23T09:19:34;10.73;;;6.78;;
9260;SDS011;4667;42.726;23.252;2022-07-23T09:25:05;6.90;;;5.20;;
9260;SDS011;4667;42.726;23.252;2022-07-23T09:27:51;6.10;;;5.45;;
9260;SDS011;4667;42.726;23.252;2022-07-23T09:30:20;9.55;;;5.15;;
9260;SDS011;4667;42.726;23.252;2022-07-23T09:33:03;12.13;;;7.53;;
9260;SDS011;4667;42.726;23.252;2022-07-23T09:35:43;9.25;;;5.10;;
9260;SDS011;4667;42.726;23.252;2022-07-23T09:38:11;6.97;;;4.93;;
9260;SDS011;4667;42.726;23.252;2022-07-23T09:40:40;6.53;;;5.63;;
9260;SDS011;4667;42.726;23.252;2022-07-23T09:43:07;5.70;;;4.53;;
9260;SDS011;4667;42.726;23.252;2022-07-23T09:45:34;5.55;;;4.50;;
9260;SDS011;4667;42.726;23.252;2022-07-23T09:48:10;8.68;;;4.50;;
9260;SDS011;4667;42.726;23.252;2022-07-23T09:50:39;5.93;;;4.85;;
9260;SDS011;4667;42.726;23.252;2022-07-23T09:53:06;6.60;;;4.75;;
9260;SDS011;4667;42.726;23.252;2022-07-23T09:55:34;5.57;;;4.68;;
9260;SDS011;4667;42.726;23.252;2022-07-23T09:58:04;10.27;;;5.32;;
9260;SDS011;4667;42.726;23.252;2022-07-23T10:00:33;8.15;;;5.05;;
9260;SDS011;4667;42.726;23.252;2022-07-23T10:03:01;12.77;;;4.30;;
9260;SDS011;4667;42.726;23.252;2022-07-23T10:05:30;6.68;;;4.70;;
9260;SDS011;4667;42.726;23.252;2022-07-23T10:07:57;5.93;;;5.07;;
9260;SDS011;4667;42.726;23.252;2022-07-23T10:10:26;6.10;;;5.50;;
9260;SDS011;4667;42.726;23.252;2022-07-23T10:12:54;7.38;;;4.65;;
9260;SDS011;4667;42.726;23.252;2022-07-23T10:15:38;6.32;;;4.53;;
9260;SDS011;4667;42.726;23.252;2022-07-23T10:18:06;6.07;;;4.93;;
9260;SDS011;4667;42.726;23.252;2022-07-23T10:20:35;6.97;;;4.72;;
9260;SDS011;4667;42.726;23.252;2022-07-23T10:23:05;7.35;;;5.70;;
9260;SDS011;4667;42.726;23.252;2022-07-23T10:25:40;5.88;;;4.35;;
9260;SDS011;4667;42.726;23.252;2022-07-23T10:28:22;6.18;;;4.35;;
9260;SDS011;4667;42.726;23.252;2022-07-23T10:31:09;7.93;;;4.80;;
9260;SDS011;4667;42.726;23.252;2022-07-23T10:33:51;5.35;;;4.28;;
9260;SDS011;4667;42.726;23.252;2022-07-23T10:36:27;7.32;;;4.38;;
9260;SDS011;4667;42.726;23.252;2022-07-23T10:38:58;10.07;;;4.13;;
9260;SDS011;4667;42.726;23.252;2022-07-23T10:41:32;6.43;;;3.42;;
9260;SDS011;4667;42.726;23.252;2022-07-23T10:44:05;5.70;;;3.97;;
9260;SDS011;4667;42.726;23.252;2022-07-23T10:46:35;6.55;;;3.83;;
9260;SDS011;4667;42.726;23.252;2022-07-23T10:49:25;7.07;;;4.00;;
9260;SDS011;4667;42.726;23.252;2022-07-23T10:54:46;9.13;;;4.20;;
9260;SDS011;4667;42.726;23.252;2022-07-23T10:57:16;5.10;;;4.60;;
9260;SDS011;4667;42.726;23.252;2022-07-23T11:02:51;6.50;;;4.10;;
9260;SDS011;4667;42.726;23.252;2022-07-23T11:05:20;6.05;;;4.00;;
9260;SDS011;4667;42.726;23.252;2022-07-23T11:10:49;10.68;;;4.00;;
9260;SDS011;4667;42.726;23.252;2022-07-23T11:13:36;7.70;;;3.83;;
9260;SDS011;4667;42.726;23.252;2022-07-23T11:16:14;8.23;;;4.00;;
9260;SDS011;4667;42.726;23.252;2022-07-23T11:21:41;5.28;;;3.83;;
9260;SDS011;4667;42.726;23.252;2022-07-23T11:24:15;8.75;;;4.15;;
9260;SDS011;4667;42.726;23.252;2022-07-23T11:26:48;8.30;;;4.07;;
9260;SDS011;4667;42.726;23.252;2022-07-23T11:29:42;8.00;;;3.30;;
9260;SDS011;4667;42.726;23.252;2022-07-23T11:32:18;6.43;;;3.53;;
9260;SDS011;4667;42.726;23.252;2022-07-23T11:34:50;6.22;;;4.82;;
9260;SDS011;4667;42.726;23.252;2022-07-23T11:37:35;6.80;;;4.30;;
9260;SDS011;4667;42.726;23.252;2022-07-23T11:40:04;7.35;;;4.13;;
9260;SDS011;4667;42.726;23.252;2022-07-23T11:42:36;9.88;;;4.40;;
9260;SDS011;4667;42.726;23.252;2022-07-23T11:45:05;8.93;;;3.83;;
9260;SDS011;4667;42.726;23.252;2022-07-23T11:47:34;7.75;;;4.50;;
9260;SDS011;4667;42.726;23.252;2022-07-23T11:50:03;8.98;;;3.83;;
9260;SDS011;4667;42.726;23.252;2022-07-23T11:52:32;9.05;;;4.22;;
9260;SDS011;4667;42.726;23.252;2022-07-23T11:55:00;8.00;;;3.85;;
9260;SDS011;4667;42.726;23.252;2022-07-23T11:57:29;5.53;;;3.30;;
9260;SDS011;4667;42.726;23.252;2022-07-23T12:00:00;11.10;;;4.25;;
9260;SDS011;4667;42.726;23.252;2022-07-23T12:02:31;5.93;;;3.25;;
9260;SDS011;4667;42.726;23.252;2022-07-23T12:04:59;8.07;;;3.50;;
9260;SDS011;4667;42.726;23.252;2022-07-23T12:07:31;7.00;;;3.78;;
9260;SDS011;4667;42.726;23.252;2022-07-23T12:10:00;7.60;;;3.65;;
9260;SDS011;4667;42.726;23.252;2022-07-23T12:12:34;6.97;;;3.90;;
9260;SDS011;4667;42.726;23.252;2022-07-23T12:15:02;5.90;;;3.63;;
9260;SDS011;4667;42.726;23.252;2022-07-23T12:17:31;12.07;;;7.72;;
9260;SDS011;4667;42.726;23.252;2022-07-23T12:19:59;10.77;;;5.75;;
9260;SDS011;4667;42.726;23.252;2022-07-23T12:22:35;9.85;;;4.50;;
9260;SDS011;4667;42.726;23.252;2022-07-23T12:25:04;8.45;;;4.50;;
9260;SDS011;4667;42.726;23.252;2022-07-23T12:27:33;9.70;;;4.18;;
9260;SDS011;4667;42.726;23.252;2022-07-23T12:30:14;8.57;;;4.28;;
9260;SDS011;4667;42.726;23.252;2022-07-23T12:32:47;9.40;;;4.13;;
9260;SDS011;4667;42.726;23.252;2022-07-23T12:35:15;7.80;;;4.30;;
9260;SDS011;4667;42.726;23.252;2022-07-23T12:37:45;9.43;;;5.13;;
9260;SDS011;4667;42.726;23.252;2022-07-23T12:40:21;9.32;;;4.20;;
9260;SDS011;4667;42.726;23.252;2022-07-23T12:42:50;6.40;;;4.10;;
9260;SDS011;4667;42.726;23.252;2022-07-23T12:45:19;7.50;;;3.88;;
9260;SDS011;4667;42.726;23.252;2022-07-23T12:47:50;10.52;;;4.28;;
9260;SDS011;4667;42.726;23.252;2022-07-23T12:50:38;7.50;;;3.63;;
9260;SDS011;4667;42.726;23.252;2022-07-23T12:53:10;4.90;;;3.15;;
9260;SDS011;4667;42.726;23.252;2022-07-23T12:55:41;6.07;;;3.63;;
9260;SDS011;4667;42.726;23.252;2022-07-23T12:58:12;5.97;;;3.40;;
9260;SDS011;4667;42.726;23.252;2022-07-23T13:00:58;14.80;;;8.63;;
9260;SDS011;4667;42.726;23.252;2022-07-23T13:03:28;8.75;;;4.72;;
9260;SDS011;4667;42.726;23.252;2022-07-23T13:05:57;8.80;;;3.60;;
9260;SDS011;4667;42.726;23.252;2022-07-23T13:08:27;8.02;;;3.92;;
9260;SDS011;4667;42.726;23.252;2022-07-23T13:10:56;8.27;;;3.55;;
9260;SDS011;4667;42.726;23.252;2022-07-23T13:13:23;10.70;;;3.85;;
9260;SDS011;4667;42.726;23.252;2022-07-23T13:15:51;6.55;;;3.30;;
9260;SDS011;4667;42.726;23.252;2022-07-23T13:18:20;7.68;;;3.38;;
9260;SDS011;4667;42.726;23.252;2022-07-23T13:20:47;5.50;;;2.90;;
9260;SDS011;4667;42.726;23.252;2022-07-23T13:23:14;9.77;;;4.40;;
9260;SDS011;4667;42.726;23.252;2022-07-23T13:25:43;7.53;;;3.58;;
9260;SDS011;4667;42.726;23.252;2022-07-23T13:28:11;8.27;;;3.35;;
9260;SDS011;4667;42.726;23.252;2022-07-23T13:30:38;8.02;;;3.38;;
9260;SDS011;4667;42.726;23.252;2022-07-23T13:33:05;10.20;;;3.35;;
9260;SDS011;4667;42.726;23.252;2022-07-23T13:35:33;8.07;;;3.42;;
9260;SDS011;4667;42.726;23.252;2022-07-23T13:38:00;8.15;;;4.13;;
9260;SDS011;4667;42.726;23.252;2022-07-23T13:40:27;11.05;;;5.72;;
9260;SDS011;4667;42.726;23.252;2022-07-23T13:42:55;8.40;;;4.03;;
9260;SDS011;4667;42.726;23.252;2022-07-23T13:45:22;4.90;;;3.60;;
9260;SDS011;4667;42.726;23.252;2022-07-23T13:47:49;7.03;;;3.95;;
9260;SDS011;4667;42.726;23.252;2022-07-23T13:50:16;6.07;;;3.33;;
9260;SDS011;4667;42.726;23.252;2022-07-23T13:52:43;5.13;;;4.13;;
9260;SDS011;4667;42.726;23.252;2022-07-23T13:55:09;7.10;;;3.30;;
9260;SDS011;4667;42.726;23.252;2022-07-23T13:57:37;6.03;;;3.10;;
9260;SDS011;4667;42.726;23.252;2022-07-23T14:00:06;9.38;;;3.90;;
9260;SDS011;4667;42.726;23.252;2022-07-23T14:02:36;7.80;;;3.63;;
9260;SDS011;4667;42.726;23.252;2022-07-23T14:05:04;7.65;;;3.75;;
9260;SDS011;4667;42.726;23.252;2022-07-23T14:07:32;6.15;;;4.35;;
9260;SDS011;4667;42.726;23.252;2022-07-23T14:09:59;7.68;;;3.67;;
9260;SDS011;4667;42.726;23.252;2022-07-23T14:12:26;7.80;;;3.47;;
9260;SDS011;4667;42.726;23.252;2022-07-23T14:14:53;5.43;;;3.47;;
9260;SDS011;4667;42.726;23.252;2022-07-23T14:17:21;6.10;;;3.25;;
9260;SDS011;4667;42.726;23.252;2022-07-23T14:19:49;7.32;;;3.50;;
9260;SDS011;4667;42.726;23.252;2022-07-23T14:22:16;5.30;;;3.60;;
9260;SDS011;4667;42.726;23.252;2022-07-23T14:24:43;5.63;;;3.10;;
9260;SDS011;4667;42.726;23.252;2022-07-23T14:27:10;5.53;;;3.85;;
9260;SDS011;4667;42.726;23.252;2022-07-23T14:29:37;6.03;;;3.40;;
9260;SDS011;4667;42.726;23.252;2022-07-23T14:32:04;9.98;;;6.07;;
9260;SDS011;4667;42.726;23.252;2022-07-23T14:34:33;6.78;;;3.80;;
9260;SDS011;4667;42.726;23.252;2022-07-23T14:37:00;4.50;;;3.10;;
9260;SDS011;4667;42.726;23.252;2022-07-23T14:39:27;6.53;;;3.33;;
9260;SDS011;4667;42.726;23.252;2022-07-23T14:41:54;9.75;;;4.30;;
9260;SDS011;4667;42.726;23.252;2022-07-23T14:44:21;5.95;;;3.28;;
9260;SDS011;4667;42.726;23.252;2022-07-23T14:46:48;5.88;;;3.13;;
9260;SDS011;4667;42.726;23.252;2022-07-23T14:49:15;7.47;;;3.47;;
9260;SDS011;4667;42.726;23.252;2022-07-23T14:51:44;6.07;;;3.63;;
9260;SDS011;4667;42.726;23.252;2022-07-23T14:54:10;7.07;;;4.53;;
9260;SDS011;4667;42.726;23.252;2022-07-23T14:56:39;14.50;;;7.72;;
9260;SDS011;4667;42.726;23.252;2022-07-23T14:59:06;9.45;;;6.57;;
9260;SDS011;4667;42.726;23.252;2022-07-23T15:01:33;6.07;;;3.95;;
9260;SDS011;4667;42.726;23.252;2022-07-23T15:04:01;7.13;;;3.90;;
9260;SDS011;4667;42.726;23.252;2022-07-23T15:06:28;5.43;;;3.85;;
9260;SDS011;4667;42.726;23.252;2022-07-23T15:08:57;8.45;;;3.75;;
9260;SDS011;4667;42.726;23.252;2022-07-23T15:11:25;8.20;;;3.70;;
9260;SDS011;4667;42.726;23.252;2022-07-23T15:13:52;6.20;;;3.40;;
9260;SDS011;4667;42.726;23.252;2022-07-23T15:16:20;6.90;;;3.58;;
9260;SDS011;4667;42.726;23.252;2022-07-23T15:18:47;7.97;;;3.00;;